Impacts TAF Board
For situational awareness. Not to be used for flight planning purposes.
IDs:

KDTW - Detroit Metro/Wayne, MI, US

Issued at 0853 UTC 18 Jan 2019
Updated at 0958 UTC 18 Jan 2019
Potential Impact None Slight Moderate High
Time<<18/22Z 18/23Z 19/00Z 19/01Z 19/02Z 19/03Z 19/04Z 19/05Z 19/06Z 19/07Z 19/08Z 19/09Z 19/10Z>>
Type PRVL PRVL PRVL PRVL PRVL PRVL PRVL PRVL PRVL PRVL PRVL PRVL PRVL
VIS >6 >6 >6 >6 >6 >6 >6 2 2 2 2 1.5 1.5
CIG 200 200 100 100 100 100 100 15 15 15 15 9 9
Cover BKN BKN OVC OVC OVC OVC OVC OVC OVC OVC OVC OVC OVC
FltCat VFR VFR VFR VFR VFR VFR VFR IFR IFR IFR IFR IFR IFR
WX -- -- -- -- -- -- -- -SN -SN -SN -SN -SN -SN
WDir 330 330 30 30 30 30 30 60 60 60 60 50 50
WSpd 10 10 10 10 10 10 10 13 13 13 13 14 14
WGst -- -- -- -- -- -- -- -- -- -- -- -- --
Raw TAF
KDTW 180853Z 1809/1912 30005KT 6SM BR OVC015
  FM181500 30007KT P6SM BKN025 OVC040
  FM182000 33010KT P6SM SCT040 BKN200
  FM190000 03010KT P6SM SCT025 OVC100
  FM190500 06013KT 2SM -SN OVC015
  FM190900 05014KT 1 1/2SM -SN OVC009


METAR Board
Radar Display
Forecast Discussion
For situational awareness. Not to be used for flight planning purposes.